Karm Viking — LAIZ — position and weather

sailwx.info

Track history (hours):
 
Tides and Currents Weather Stations Pressure Air Temp Water Temp Dewpoint Dewpoint Depression Visibility Wind Speed Wind Dir Waves Ship Positions

Karm Viking

Last reported at 2015-Feb-17 20:33 UTC. Time now 2015-Mar-07 00:13 UTC.
Position N 59°28' E 005°01'.
Warning: this ship's position is 17 days out of date.

Length 40 m; draft 5 m.

Type: Other ship. MMSI: 258274000.

Date/timePositionNaut miles runAvg speedWind from/ knotsBaromVisibWave heightAir tempDewpointWater temp
2015-Feb-17 20:33N 59°28' E 005°01'5 5.3
2015-Feb-17 19:33N 59°27' E 005°11'4 2.1
2015-Feb-17 17:33N 59°24' E 005°16'0 0.0
2015-Feb-17 16:33N 59°24' E 005°16'0 0.1
2015-Feb-17 15:33N 59°24' E 005°16'0 0.1
2015-Feb-17 14:33N 59°24' E 005°16'3 2.5
2015-Feb-17 13:33N 59°23' E 005°12'7 3.6
2015-Feb-17 11:33N 59°16' E 005°11'0 0.0
2015-Feb-17 10:21N 59°16' E 005°11'0 0.0
2015-Feb-17 09:26N 59°16' E 005°11'0 0.0
2015-Feb-17 08:32N 59°16' E 005°11'0 0.0
2015-Feb-17 07:31N 59°16' E 005°11'0 0.0
2015-Feb-17 06:24N 59°16' E 005°11'0 0.0
2015-Feb-17 05:18N 59°16' E 005°11'0 0.0
2015-Feb-17 03:17N 59°16' E 005°11'0 0.0
2015-Feb-17 02:10N 59°16' E 005°11'0 0.0
2015-Feb-17 01:34N 59°16' E 005°11'0 0.0
2015-Feb-17 00:33N 59°16' E 005°11'0 0.0
2015-Feb-16 23:32N 59°16' E 005°11'0 0.0
2015-Feb-16 22:07N 59°16' E 005°11'0 0.0
2015-Feb-16 21:25N 59°16' E 005°11'0 0.0
2015-Feb-16 20:06N 59°16' E 005°11'0 0.0
2015-Feb-16 19:30N 59°16' E 005°11'0 0.0
2015-Feb-16 17:29N 59°16' E 005°11'0 0.0
2015-Feb-16 16:28N 59°16' E 005°11'0 0.0
2015-Feb-16 15:27N 59°16' E 005°11'0 0.0
2015-Feb-16 14:33N 59°16' E 005°11'0 0.0
2015-Feb-16 13:32N 59°16' E 005°11'0 0.0
2015-Feb-16 12:20N 59°16' E 005°11'0 0.0
2015-Feb-16 11:25N 59°16' E 005°11'0 0.0
2015-Feb-16 10:06N 59°16' E 005°11'0 0.0
2015-Feb-16 09:24N 59°16' E 005°11'0 0.0
2015-Feb-16 08:23N 59°16' E 005°11'0 0.0
2015-Feb-16 07:23N 59°16' E 005°11'0 0.0
2015-Feb-16 06:16N 59°16' E 005°11'0 0.0
2015-Feb-16 05:28N 59°16' E 005°11'0 0.0
2015-Feb-16 04:33N 59°16' E 005°11'0 0.0
2015-Feb-16 01:19N 59°16' E 005°11'0 0.0
2015-Feb-16 00:31N 59°16' E 005°11'0 0.0
2015-Feb-15 23:30N 59°16' E 005°11'0 0.0
2015-Feb-15 22:17N 59°16' E 005°11'0 0.0
2015-Feb-15 21:17N 59°16' E 005°11'0 0.0
2015-Feb-15 20:28N 59°16' E 005°11'0 0.0
2015-Feb-15 19:16N 59°16' E 005°11'0 0.0
2015-Feb-15 18:21N 59°16' E 005°11'0 0.0
2015-Feb-15 17:32N 59°16' E 005°11'0 0.0
2015-Feb-15 12:17N 59°16' E 005°11'0 0.0
2015-Feb-15 11:29N 59°16' E 005°11'0 0.0
2015-Feb-15 10:28N 59°16' E 005°11'0 0.0
2015-Feb-15 09:10N 59°16' E 005°11'0 0.0
2015-Feb-15 08:33N 59°16' E 005°11'0 0.0
2015-Feb-15 07:27N 59°16' E 005°11'0 0.0
2015-Feb-15 06:32N 59°16' E 005°11'0 0.0
2015-Feb-15 02:24N 59°16' E 005°11'0 0.0
2015-Feb-15 00:22N 59°16' E 005°11'0 0.0
2015-Feb-14 23:28N 59°16' E 005°11'0 0.0
2015-Feb-14 22:33N 59°16' E 005°11'0 0.0
2015-Feb-14 17:18N 59°16' E 005°11'0 0.0
2015-Feb-14 16:17N 59°16' E 005°11'0 0.0
2015-Feb-14 15:17N 59°16' E 005°11'0 0.0
2015-Feb-14 14:22N 59°16' E 005°11'0 0.0
2015-Feb-14 09:25N 59°16' E 005°11'0 0.0
2015-Feb-14 08:19N 59°16' E 005°11'0 0.0
2015-Feb-14 07:24N 59°16' E 005°11'0 0.0
2015-Feb-14 06:30N 59°16' E 005°11'0 0.0
2015-Feb-14 05:29N 59°16' E 005°11'0 0.0
2015-Feb-14 03:04N 59°16' E 005°11'0 0.0
2015-Feb-14 01:27N 59°16' E 005°11'0 0.0
2015-Feb-14 00:26N 59°16' E 005°11'0 0.0
2015-Feb-13 23:25N 59°16' E 005°11'0 0.0
2015-Feb-13 21:30N 59°16' E 005°11'0 0.0
2015-Feb-13 20:18N 59°16' E 005°11'0 0.0
2015-Feb-13 19:29N 59°16' E 005°11'0 0.0
2015-Feb-13 18:16N 59°16' E 005°11'0 0.0
2015-Feb-13 17:16N 59°16' E 005°11'0 0.0
2015-Feb-13 16:27N 59°16' E 005°11'0 0.0
2015-Feb-13 15:27N 59°16' E 005°11'0 0.0
2015-Feb-13 14:32N 59°16' E 005°11'0 0.0
2015-Feb-13 13:32N 59°16' E 005°11'0 0.0
2015-Feb-13 12:25N 59°16' E 005°11'0 0.0
2015-Feb-13 11:30N 59°16' E 005°11'0 0.0
2015-Feb-13 10:24N 59°16' E 005°11'0 0.0
2015-Feb-13 09:32N 59°16' E 005°11'0 0.0
2015-Feb-13 07:22N 59°16' E 005°11'0 0.0
2015-Feb-13 06:33N 59°16' E 005°11'0 0.0
2015-Feb-13 05:21N 59°16' E 005°11'0 0.0
2015-Feb-13 04:32N 59°16' E 005°11'0 0.0
2015-Feb-13 03:20N 59°16' E 005°11'0 0.0
2015-Feb-13 02:31N 59°16' E 005°11'0 0.0
2015-Feb-13 01:30N 59°16' E 005°11'0 0.0
2015-Feb-13 00:30N 59°16' E 005°11'0 0.0
2015-Feb-12 23:29N 59°16' E 005°11'0 0.0
2015-Feb-12 22:29N 59°16' E 005°11'0 0.0
2015-Feb-12 09:15N 59°16' E 005°11'0 0.0
2015-Feb-12 08:32N 59°16' E 005°11'0 0.0
2015-Feb-12 07:32N 59°16' E 005°11'0 0.0
2015-Feb-12 06:25N 59°16' E 005°11'0 0.0
2015-Feb-12 05:24N 59°16' E 005°11'0 0.0
2015-Feb-12 04:24N 59°16' E 005°11'0 0.0
2015-Feb-12 03:29N 59°16' E 005°11'0 0.0
2015-Feb-12 02:04N 59°16' E 005°11'0 0.0
2015-Feb-12 01:28N 59°16' E 005°11'0 0.0
2015-Feb-11 23:27N 59°16' E 005°11'0 0.0
2015-Feb-11 22:08N 59°16' E 005°11'0 0.0
2015-Feb-11 21:32N 59°16' E 005°11'0 0.0
2015-Feb-11 20:19N 59°16' E 005°11'0 0.0
2015-Feb-11 19:25N 59°16' E 005°11'0 0.0
2015-Feb-11 17:17N 59°16' E 005°11'0 0.0
2015-Feb-11 16:29N 59°16' E 005°11'0 0.0
2015-Feb-11 15:28N 59°16' E 005°11'0 0.0
2015-Feb-11 14:28N 59°16' E 005°11'0 0.0
2015-Feb-11 13:09N 59°16' E 005°11'0 0.0
2015-Feb-11 12:32N 59°16' E 005°11'0 0.0
2015-Feb-11 11:26N 59°16' E 005°11'0 0.0
2015-Feb-11 08:06N 59°16' E 005°11'0 0.0
2015-Feb-11 07:23N 59°16' E 005°11'0 0.0
2015-Feb-11 06:17N 59°16' E 005°11'0 0.0
2015-Feb-10 18:28N 59°16' E 005°11'0 0.0
2015-Feb-10 17:33N 59°16' E 005°11'0 0.0
2015-Feb-10 16:33N 59°16' E 005°11'0 0.0
2015-Feb-10 15:26N 59°16' E 005°11'0 0.0
2015-Feb-10 14:31N 59°16' E 005°11'0 0.0
2015-Feb-10 13:31N 59°16' E 005°11'0 0.0
2015-Feb-10 12:30N 59°16' E 005°11'0 0.0
2015-Feb-10 09:28N 59°16' E 005°11'0 0.0
2015-Feb-10 07:21N 59°16' E 005°11'0 0.0
2015-Feb-10 05:26N 59°16' E 005°11'0 0.0
2015-Feb-09 22:16N 59°16' E 005°11'0 0.0
2015-Feb-09 15:18N 59°16' E 005°11'0 0.0
2015-Feb-09 14:11N 59°16' E 005°11'0 0.0
2015-Feb-09 13:04N 59°16' E 005°11'0 0.0
2015-Feb-09 11:30N 59°16' E 005°11'0 0.0
2015-Feb-09 03:29N 59°16' E 005°11'0 0.0
2015-Feb-09 01:09N 59°16' E 005°11'0 0.0
2015-Feb-08 18:29N 59°16' E 005°11'0 0.0
2015-Feb-08 14:21N 59°16' E 005°11'0 0.0
2015-Feb-08 13:26N 59°16' E 005°11'0 0.0
2015-Feb-08 12:32N 59°16' E 005°11'0 0.0
2015-Feb-08 11:25N 59°16' E 005°11'0 0.0
2015-Feb-08 10:33N 59°16' E 005°11'5 5.2
2015-Feb-08 09:33N 59°11' E 005°08'5 5.4
2015-Feb-08 08:33N 59°07' E 005°16'6 5.8
2015-Feb-08 07:33N 59°09' E 005°27'6 5.7
2015-Feb-08 06:33N 59°13' E 005°35'1 0.7
2015-Feb-08 05:34N 59°12' E 005°34'0 0.2
2015-Feb-08 04:33N 59°13' E 005°34'0 0.2
2015-Feb-08 03:34N 59°12' E 005°33'1 0.8
2015-Feb-08 02:34N 59°12' E 005°33'1 0.7
2015-Feb-08 01:34N 59°12' E 005°34'1 0.5
2015-Feb-08 00:34N 59°12' E 005°34'1 1.0
2015-Feb-07 23:34N 59°11' E 005°34'3 2.7
2015-Feb-07 22:34N 59°09' E 005°30'8 8.1
2015-Feb-07 21:33N 59°07' E 005°15'9 8.8
2015-Feb-07 20:33N 59°08' E 004°58'  
Track history (hours):
 
Tides and Currents Weather Stations Pressure Air Temp Water Temp Dewpoint Dewpoint Depression Visibility Wind Speed Wind Dir Waves Ship Positions

Karm Viking

Last reported at 2015-Feb-17 20:33 UTC. Time now 2015-Mar-07 00:13 UTC.
Position N 59°28' E 005°01'.
Warning: this ship's position is 17 days out of date.

Length 40 m; draft 5 m.

Type: Other ship. MMSI: 258274000.

Date/timePositionNaut miles runAvg speedWind from/ knotsBaromVisibWave heightAir tempDewpointWater temp
2015-Feb-17 20:33N 59°28' E 005°01'5 5.3
2015-Feb-17 19:33N 59°27' E 005°11'4 2.1
2015-Feb-17 17:33N 59°24' E 005°16'0 0.0
2015-Feb-17 16:33N 59°24' E 005°16'0 0.1
2015-Feb-17 15:33N 59°24' E 005°16'0 0.1
2015-Feb-17 14:33N 59°24' E 005°16'3 2.5
2015-Feb-17 13:33N 59°23' E 005°12'7 3.6
2015-Feb-17 11:33N 59°16' E 005°11'0 0.0
2015-Feb-17 10:21N 59°16' E 005°11'0 0.0
2015-Feb-17 09:26N 59°16' E 005°11'0 0.0
2015-Feb-17 08:32N 59°16' E 005°11'0 0.0
2015-Feb-17 07:31N 59°16' E 005°11'0 0.0
2015-Feb-17 06:24N 59°16' E 005°11'0 0.0
2015-Feb-17 05:18N 59°16' E 005°11'0 0.0
2015-Feb-17 03:17N 59°16' E 005°11'0 0.0
2015-Feb-17 02:10N 59°16' E 005°11'0 0.0
2015-Feb-17 01:34N 59°16' E 005°11'0 0.0
2015-Feb-17 00:33N 59°16' E 005°11'0 0.0
2015-Feb-16 23:32N 59°16' E 005°11'0 0.0
2015-Feb-16 22:07N 59°16' E 005°11'0 0.0
2015-Feb-16 21:25N 59°16' E 005°11'0 0.0
2015-Feb-16 20:06N 59°16' E 005°11'0 0.0
2015-Feb-16 19:30N 59°16' E 005°11'0 0.0
2015-Feb-16 17:29N 59°16' E 005°11'0 0.0
2015-Feb-16 16:28N 59°16' E 005°11'0 0.0
2015-Feb-16 15:27N 59°16' E 005°11'0 0.0
2015-Feb-16 14:33N 59°16' E 005°11'0 0.0
2015-Feb-16 13:32N 59°16' E 005°11'0 0.0
2015-Feb-16 12:20N 59°16' E 005°11'0 0.0
2015-Feb-16 11:25N 59°16' E 005°11'0 0.0
2015-Feb-16 10:06N 59°16' E 005°11'0 0.0
2015-Feb-16 09:24N 59°16' E 005°11'0 0.0
2015-Feb-16 08:23N 59°16' E 005°11'0 0.0
2015-Feb-16 07:23N 59°16' E 005°11'0 0.0
2015-Feb-16 06:16N 59°16' E 005°11'0 0.0
2015-Feb-16 05:28N 59°16' E 005°11'0 0.0
2015-Feb-16 04:33N 59°16' E 005°11'0 0.0
2015-Feb-16 01:19N 59°16' E 005°11'0 0.0
2015-Feb-16 00:31N 59°16' E 005°11'0 0.0
2015-Feb-15 23:30N 59°16' E 005°11'0 0.0
2015-Feb-15 22:17N 59°16' E 005°11'0 0.0
2015-Feb-15 21:17N 59°16' E 005°11'0 0.0
2015-Feb-15 20:28N 59°16' E 005°11'0 0.0
2015-Feb-15 19:16N 59°16' E 005°11'0 0.0
2015-Feb-15 18:21N 59°16' E 005°11'0 0.0
2015-Feb-15 17:32N 59°16' E 005°11'0 0.0
2015-Feb-15 12:17N 59°16' E 005°11'0 0.0
2015-Feb-15 11:29N 59°16' E 005°11'0 0.0
2015-Feb-15 10:28N 59°16' E 005°11'0 0.0
2015-Feb-15 09:10N 59°16' E 005°11'0 0.0
2015-Feb-15 08:33N 59°16' E 005°11'0 0.0
2015-Feb-15 07:27N 59°16' E 005°11'0 0.0
2015-Feb-15 06:32N 59°16' E 005°11'0 0.0
2015-Feb-15 02:24N 59°16' E 005°11'0 0.0
2015-Feb-15 00:22N 59°16' E 005°11'0 0.0
2015-Feb-14 23:28N 59°16' E 005°11'0 0.0
2015-Feb-14 22:33N 59°16' E 005°11'0 0.0
2015-Feb-14 17:18N 59°16' E 005°11'0 0.0
2015-Feb-14 16:17N 59°16' E 005°11'0 0.0
2015-Feb-14 15:17N 59°16' E 005°11'0 0.0
2015-Feb-14 14:22N 59°16' E 005°11'0 0.0
2015-Feb-14 09:25N 59°16' E 005°11'0 0.0
2015-Feb-14 08:19N 59°16' E 005°11'0 0.0
2015-Feb-14 07:24N 59°16' E 005°11'0 0.0
2015-Feb-14 06:30N 59°16' E 005°11'0 0.0
2015-Feb-14 05:29N 59°16' E 005°11'0 0.0
2015-Feb-14 03:04N 59°16' E 005°11'0 0.0
2015-Feb-14 01:27N 59°16' E 005°11'0 0.0
2015-Feb-14 00:26N 59°16' E 005°11'0 0.0
2015-Feb-13 23:25N 59°16' E 005°11'0 0.0
2015-Feb-13 21:30N 59°16' E 005°11'0 0.0
2015-Feb-13 20:18N 59°16' E 005°11'0 0.0
2015-Feb-13 19:29N 59°16' E 005°11'0 0.0
2015-Feb-13 18:16N 59°16' E 005°11'0 0.0
2015-Feb-13 17:16N 59°16' E 005°11'0 0.0
2015-Feb-13 16:27N 59°16' E 005°11'0 0.0
2015-Feb-13 15:27N 59°16' E 005°11'0 0.0
2015-Feb-13 14:32N 59°16' E 005°11'0 0.0
2015-Feb-13 13:32N 59°16' E 005°11'0 0.0
2015-Feb-13 12:25N 59°16' E 005°11'0 0.0
2015-Feb-13 11:30N 59°16' E 005°11'0 0.0
2015-Feb-13 10:24N 59°16' E 005°11'0 0.0
2015-Feb-13 09:32N 59°16' E 005°11'0 0.0
2015-Feb-13 07:22N 59°16' E 005°11'0 0.0
2015-Feb-13 06:33N 59°16' E 005°11'0 0.0
2015-Feb-13 05:21N 59°16' E 005°11'0 0.0
2015-Feb-13 04:32N 59°16' E 005°11'0 0.0
2015-Feb-13 03:20N 59°16' E 005°11'0 0.0
2015-Feb-13 02:31N 59°16' E 005°11'0 0.0
2015-Feb-13 01:30N 59°16' E 005°11'0 0.0
2015-Feb-13 00:30N 59°16' E 005°11'0 0.0
2015-Feb-12 23:29N 59°16' E 005°11'0 0.0
2015-Feb-12 22:29N 59°16' E 005°11'0 0.0
2015-Feb-12 09:15N 59°16' E 005°11'0 0.0
2015-Feb-12 08:32N 59°16' E 005°11'0 0.0
2015-Feb-12 07:32N 59°16' E 005°11'0 0.0
2015-Feb-12 06:25N 59°16' E 005°11'0 0.0
2015-Feb-12 05:24N 59°16' E 005°11'0 0.0
2015-Feb-12 04:24N 59°16' E 005°11'0 0.0
2015-Feb-12 03:29N 59°16' E 005°11'0 0.0
2015-Feb-12 02:04N 59°16' E 005°11'0 0.0
2015-Feb-12 01:28N 59°16' E 005°11'0 0.0
2015-Feb-11 23:27N 59°16' E 005°11'0 0.0
2015-Feb-11 22:08N 59°16' E 005°11'0 0.0
2015-Feb-11 21:32N 59°16' E 005°11'0 0.0
2015-Feb-11 20:19N 59°16' E 005°11'0 0.0
2015-Feb-11 19:25N 59°16' E 005°11'0 0.0
2015-Feb-11 17:17N 59°16' E 005°11'0 0.0
2015-Feb-11 16:29N 59°16' E 005°11'0 0.0
2015-Feb-11 15:28N 59°16' E 005°11'0 0.0
2015-Feb-11 14:28N 59°16' E 005°11'0 0.0
2015-Feb-11 13:09N 59°16' E 005°11'0 0.0
2015-Feb-11 12:32N 59°16' E 005°11'0 0.0
2015-Feb-11 11:26N 59°16' E 005°11'0 0.0
2015-Feb-11 08:06N 59°16' E 005°11'0 0.0
2015-Feb-11 07:23N 59°16' E 005°11'0 0.0
2015-Feb-11 06:17N 59°16' E 005°11'0 0.0
2015-Feb-10 18:28N 59°16' E 005°11'0 0.0
2015-Feb-10 17:33N 59°16' E 005°11'0 0.0
2015-Feb-10 16:33N 59°16' E 005°11'0 0.0
2015-Feb-10 15:26N 59°16' E 005°11'0 0.0
2015-Feb-10 14:31N 59°16' E 005°11'0 0.0
2015-Feb-10 13:31N 59°16' E 005°11'0 0.0
2015-Feb-10 12:30N 59°16' E 005°11'0 0.0
2015-Feb-10 09:28N 59°16' E 005°11'0 0.0
2015-Feb-10 07:21N 59°16' E 005°11'0 0.0
2015-Feb-10 05:26N 59°16' E 005°11'0 0.0
2015-Feb-09 22:16N 59°16' E 005°11'0 0.0
2015-Feb-09 15:18N 59°16' E 005°11'0 0.0
2015-Feb-09 14:11N 59°16' E 005°11'0 0.0
2015-Feb-09 13:04N 59°16' E 005°11'0 0.0
2015-Feb-09 11:30N 59°16' E 005°11'0 0.0
2015-Feb-09 03:29N 59°16' E 005°11'0 0.0
2015-Feb-09 01:09N 59°16' E 005°11'0 0.0
2015-Feb-08 18:29N 59°16' E 005°11'0 0.0
2015-Feb-08 14:21N 59°16' E 005°11'0 0.0
2015-Feb-08 13:26N 59°16' E 005°11'0 0.0
2015-Feb-08 12:32N 59°16' E 005°11'0 0.0
2015-Feb-08 11:25N 59°16' E 005°11'0 0.0
2015-Feb-08 10:33N 59°16' E 005°11'5 5.2
2015-Feb-08 09:33N 59°11' E 005°08'5 5.4
2015-Feb-08 08:33N 59°07' E 005°16'6 5.8
2015-Feb-08 07:33N 59°09' E 005°27'6 5.7
2015-Feb-08 06:33N 59°13' E 005°35'1 0.7
2015-Feb-08 05:34N 59°12' E 005°34'0 0.2
2015-Feb-08 04:33N 59°13' E 005°34'0 0.2
2015-Feb-08 03:34N 59°12' E 005°33'1 0.8
2015-Feb-08 02:34N 59°12' E 005°33'1 0.7
2015-Feb-08 01:34N 59°12' E 005°34'1 0.5
2015-Feb-08 00:34N 59°12' E 005°34'1 1.0
2015-Feb-07 23:34N 59°11' E 005°34'3 2.7
2015-Feb-07 22:34N 59°09' E 005°30'8 8.1
2015-Feb-07 21:33N 59°07' E 005°15'9 8.8
2015-Feb-07 20:33N 59°08' E 004°58'  

Dump ship's entire track history